Aviation Digital Data Service (ADDS)

Output produced by METARs form (0358 UTC 17 April 2014)
found at http://www.aviationweather.gov/adds/metars/
 
KSBY 170354Z AUTO 00000KT 10SM CLR 02/M02 A3054 RMK AO2 SLP345 T00221017
KSBY 162342Z 1700/1724 06008KT P6SM SKC 
     FM171300 08012G18KT P6SM SKC 
     FM171800 08012G18KT P6SM BKN040